createdAt,value
2019-04-23T00:02:25.119Z,7.87
2019-04-23T00:08:36.254Z,8.20
2019-04-23T00:14:41.052Z,7.92
2019-04-23T00:20:42.272Z,7.75
2019-04-23T00:27:01.883Z,8.00
2019-04-23T00:32:59.205Z,8.15
2019-04-23T00:38:54.250Z,8.05
2019-04-23T00:45:00.371Z,8.50
2019-04-23T00:51:22.749Z,7.25
2019-04-23T01:03:21.439Z,7.22
2019-04-23T01:09:44.105Z,8.05
2019-04-23T01:21:30.585Z,6.87
2019-04-23T01:28:17.480Z,7.10
2019-04-23T01:34:26.029Z,7.35
2019-04-23T01:40:31.900Z,7.17
2019-04-23T01:46:35.838Z,6.50
2019-04-23T01:52:45.554Z,7.10
2019-04-23T01:58:46.990Z,6.00
2019-04-23T02:04:55.123Z,6.53
2019-04-23T02:17:00.808Z,10.85
2019-04-23T02:54:26.807Z,7.60
2019-04-23T03:00:28.812Z,6.03
2019-04-23T03:06:32.188Z,5.33
2019-04-23T03:18:51.864Z,5.40
2019-04-23T03:25:07.139Z,5.80
2019-04-23T03:43:26.151Z,5.95
2019-04-23T03:49:32.815Z,5.58
2019-04-23T04:14:01.040Z,5.55
2019-04-23T04:26:04.580Z,5.40
2019-04-23T04:32:15.105Z,5.25
2019-04-23T04:38:38.675Z,5.33
2019-04-23T04:44:38.318Z,5.03
2019-04-23T04:50:26.607Z,5.03
2019-04-23T04:56:40.335Z,4.70
2019-04-23T05:02:53.922Z,5.08
2019-04-23T05:09:02.238Z,5.20
2019-04-23T05:14:56.766Z,4.60
2019-04-23T05:20:58.047Z,4.53
2019-04-23T05:26:57.952Z,5.53
2019-04-23T05:33:13.256Z,4.72
2019-04-23T05:39:15.478Z,4.92
2019-04-23T05:45:16.082Z,5.22
2019-04-23T05:51:28.308Z,4.45
2019-04-23T05:57:27.214Z,5.20
2019-04-23T06:03:38.430Z,5.08
2019-04-23T06:09:41.762Z,5.12
2019-04-23T06:15:46.766Z,5.08
2019-04-23T06:28:03.544Z,4.72
2019-04-23T06:34:12.507Z,4.62
2019-04-23T06:40:27.556Z,4.80
2019-04-23T06:46:21.268Z,4.70
2019-04-23T06:58:32.705Z,4.62
2019-04-23T07:04:43.341Z,4.80
2019-04-23T07:10:40.350Z,5.00
2019-04-23T07:16:47.016Z,4.75
2019-04-23T07:22:58.084Z,4.47
2019-04-23T07:29:00.004Z,5.15
2019-04-23T07:41:47.841Z,4.42
2019-04-23T07:48:10.867Z,5.60
2019-04-23T07:54:16.073Z,5.97
2019-04-23T08:00:24.044Z,5.45
2019-04-23T08:06:17.823Z,5.40
2019-04-23T08:12:31.930Z,5.10
2019-04-23T08:18:39.820Z,5.03
2019-04-23T08:25:11.005Z,5.65
2019-04-23T08:31:09.832Z,5.50
2019-04-23T08:37:14.997Z,5.35
2019-04-23T08:43:36.909Z,5.25
2019-04-23T08:49:46.817Z,5.28
2019-04-23T08:55:44.591Z,5.72
2019-04-23T09:01:55.670Z,5.40
2019-04-23T09:08:01.542Z,5.35
2019-04-23T09:13:55.808Z,5.62
2019-04-23T09:26:22.727Z,5.62
2019-04-23T09:38:34.855Z,5.10
2019-04-23T09:44:58.349Z,6.72
2019-04-23T09:50:55.497Z,5.83
2019-04-23T09:57:14.047Z,6.12
2019-04-23T10:02:55.531Z,6.28
2019-04-23T10:08:50.047Z,6.40
2019-04-23T10:14:57.735Z,5.47
2019-04-23T10:20:56.944Z,5.58
2019-04-23T10:27:01.970Z,5.85
2019-04-23T10:33:07.504Z,6.78
2019-04-23T10:39:21.185Z,6.17
2019-04-23T10:45:44.789Z,6.65
2019-04-23T10:52:12.966Z,7.47
2019-04-23T10:58:17.390Z,7.05
2019-04-23T11:04:39.435Z,6.62
2019-04-23T11:10:23.572Z,6.90
2019-04-23T11:22:45.234Z,7.53
2019-04-23T11:40:49.521Z,7.83
2019-04-23T11:53:10.393Z,7.90
2019-04-23T11:59:27.486Z,8.90
2019-04-23T12:05:46.636Z,7.45
2019-04-23T12:17:55.912Z,8.60
2019-04-23T12:24:39.452Z,8.65
2019-04-23T12:30:08.567Z,9.08
2019-04-23T12:36:42.049Z,10.00
2019-04-23T12:54:58.993Z,10.35
2019-04-23T13:00:51.589Z,10.00
2019-04-23T13:06:57.887Z,9.38
2019-04-23T13:13:11.176Z,9.88
2019-04-23T13:19:23.638Z,9.13
2019-04-23T13:25:45.666Z,9.25
2019-04-23T13:31:40.075Z,10.05
2019-04-23T13:38:09.257Z,9.50
2019-04-23T13:44:14.287Z,9.58
2019-04-23T13:50:07.442Z,10.30
2019-04-23T13:56:13.709Z,13.53
2019-04-23T14:02:24.394Z,10.60
2019-04-23T14:08:33.588Z,11.28
2019-04-23T14:14:52.157Z,10.98
2019-04-23T14:20:32.282Z,9.78
2019-04-23T14:26:38.416Z,11.35
2019-04-23T14:32:53.512Z,15.58
2019-04-23T14:45:13.605Z,10.78
2019-04-23T14:51:13.444Z,11.12
2019-04-23T14:57:15.910Z,10.85
2019-04-23T15:03:28.804Z,9.93
2019-04-23T15:09:28.080Z,10.38
2019-04-23T15:28:21.492Z,13.32
2019-04-23T15:40:00.773Z,11.10
2019-04-23T15:46:02.908Z,11.40
2019-04-23T15:52:10.800Z,12.50
2019-04-23T15:58:14.294Z,11.05
2019-04-23T16:03:53.046Z,11.95
2019-04-23T16:10:28.780Z,11.57
2019-04-23T16:16:37.367Z,11.60
2019-04-23T16:22:36.807Z,11.78
2019-04-23T16:29:07.359Z,9.98
2019-04-23T16:35:10.902Z,10.85
2019-04-23T16:40:57.229Z,10.68
2019-04-23T16:47:14.511Z,10.82
2019-04-23T16:53:21.438Z,10.35
2019-04-23T16:59:17.984Z,10.43
2019-04-23T17:05:33.771Z,11.45
2019-04-23T17:11:48.416Z,10.35
2019-04-23T17:17:41.149Z,10.82
2019-04-23T17:24:09.667Z,10.30
2019-04-23T17:29:51.050Z,10.15
2019-04-23T17:36:24.751Z,9.58
2019-04-23T17:42:40.144Z,10.05
2019-04-23T17:48:47.879Z,10.90
2019-04-23T17:54:55.271Z,11.88
2019-04-23T18:01:20.331Z,12.65
2019-04-23T18:07:44.634Z,12.20
2019-04-23T18:13:36.870Z,13.60
2019-04-23T18:19:47.203Z,13.72
2019-04-23T18:25:58.043Z,15.18
2019-04-23T18:38:29.085Z,18.25
2019-04-23T18:44:38.335Z,15.95
2019-04-23T18:50:57.054Z,16.10
2019-04-23T18:56:59.534Z,16.05
2019-04-23T19:03:11.272Z,15.93
2019-04-23T19:15:21.902Z,15.90
2019-04-23T19:21:29.900Z,16.27
2019-04-23T19:39:36.585Z,17.57
2019-04-23T19:45:56.818Z,15.85
2019-04-23T19:51:54.286Z,13.65
2019-04-23T20:03:56.271Z,10.85
2019-04-23T20:10:04.112Z,8.73
2019-04-23T20:16:19.541Z,8.73
2019-04-23T20:29:02.653Z,8.80
2019-04-23T20:40:54.020Z,8.70
2019-04-23T20:47:06.802Z,9.53
2019-04-23T20:52:59.614Z,9.98
2019-04-23T20:59:11.592Z,9.33
2019-04-23T21:05:19.600Z,9.13
2019-04-23T21:11:28.671Z,9.33
2019-04-23T21:17:42.372Z,9.45
2019-04-23T21:23:37.485Z,8.93
2019-04-23T21:29:53.766Z,8.88
2019-04-23T21:36:15.573Z,9.40
2019-04-23T21:42:32.746Z,9.40
2019-04-23T21:48:53.075Z,9.95
2019-04-23T21:54:47.166Z,10.28
2019-04-23T22:00:58.712Z,10.40
2019-04-23T22:13:13.010Z,11.38
2019-04-23T22:25:02.753Z,10.78
2019-04-23T22:31:18.681Z,11.57
2019-04-23T22:37:24.187Z,11.25
2019-04-23T22:43:29.972Z,11.22
2019-04-23T22:49:45.248Z,11.40
2019-04-23T22:56:01.701Z,12.15
2019-04-23T23:02:09.148Z,11.97
2019-04-23T23:08:10.684Z,11.68
2019-04-23T23:20:36.307Z,11.90
2019-04-23T23:44:57.158Z,11.68
2019-04-23T23:51:00.774Z,12.88
2019-04-23T23:57:11.197Z,12.50
